CheckWX is a tool to help pilots better visualize weather data.  It is not intended as a substitute for an official pre-flight weather briefing.

21:24:00 UTC

LTAF TAF
Adana Airport
Adana, Turkey
TAF LTAF 072240Z 0800/0824 VRB02KT 9999 SCT035 BKN100 TEMPO 0803/0807 -SHRA PROB40 TEMPO 0808/0812 -TSRA SCT020CB BKN030

Apr-8@
00:00 UTC

Apr-8 @ 00:00 UTC

Apr-9@
00:00 UTC

Apr-9 @ 00:00 UTC

TAF LTAF 072240Z 0800/0824 VRB02KT 9999 SCT035 BKN100
Wind
  • Variable at 2 KTS
Cloud Levels
  • Scattered at 3,500' AGL
  • Broken at 10,000' AGL

Apr-8@
03:00 UTC

Apr-8 @ 03:00 UTC

Apr-8@
07:00 UTC

Apr-8 @ 07:00 UTC

TEMPO 0803/0807 -SHRA

Expired

Conditions
Light Showers, Rain
Cloud Levels

Apr-8@
08:00 UTC

Apr-8 @ 08:00 UTC

Apr-8@
12:00 UTC

Apr-8 @ 12:00 UTC

PROB40 TEMPO 0808/0812 -TSRA SCT020CB BKN030

Expired

Conditions
Light Thunderstorm, Rain
Cloud Levels
  • Scattered at 2,000' AGL
  • Broken at 3,000' AGL